createdAt,value
2022-12-25T00:00:53.376Z,30.9
2022-12-25T00:02:50.964Z,24.9
2022-12-25T00:06:46.028Z,59.9
2022-12-25T00:08:51.513Z,47.2
2022-12-25T00:10:49.107Z,31.7
2022-12-25T00:12:46.716Z,45.6
2022-12-25T00:14:44.354Z,37.2
2022-12-25T00:16:42.005Z,58.4
2022-12-25T00:18:39.511Z,32.8
2022-12-25T00:20:37.133Z,46.7
2022-12-25T00:22:42.626Z,46.8
2022-12-25T00:24:40.221Z,25.4
2022-12-25T00:28:54.859Z,37.5
2022-12-25T00:30:52.446Z,53.7
2022-12-25T00:32:50.009Z,33.1
2022-12-25T00:34:55.628Z,43.6
2022-12-25T00:38:50.743Z,30.6
2022-12-25T00:40:48.325Z,42.1
2022-12-25T00:42:45.957Z,51
2022-12-25T00:44:43.560Z,56.7
2022-12-25T00:46:41.230Z,25.5
2022-12-25T00:48:46.650Z,23.5
2022-12-25T00:50:44.286Z,35.4
2022-12-25T00:52:41.873Z,51.4
2022-12-25T00:54:39.473Z,30.3
2022-12-25T00:56:37.074Z,27
2022-12-25T00:58:34.674Z,24.8
2022-12-25T01:00:32.306Z,29.8
2022-12-25T01:02:37.945Z,33.7
2022-12-25T01:04:35.406Z,21.9
2022-12-25T01:06:32.955Z,30.6
2022-12-25T01:08:30.551Z,56.1
2022-12-25T01:10:28.137Z,29.2
2022-12-25T01:12:25.761Z,29.8
2022-12-25T01:14:23.392Z,25.8
2022-12-25T01:18:26.450Z,22.5
2022-12-25T01:20:24.051Z,17.9
2022-12-25T01:23:24.411Z,52.5
2022-12-25T01:25:22.002Z,34.7
2022-12-25T01:27:19.585Z,28.5
2022-12-25T01:29:25.080Z,42.6
2022-12-25T01:31:22.767Z,29
2022-12-25T01:35:17.977Z,50.3
2022-12-25T01:37:15.541Z,24.8
2022-12-25T01:39:13.146Z,23.7
2022-12-25T01:41:10.773Z,33.1
2022-12-25T01:43:18.759Z,27.5
2022-12-25T01:45:13.879Z,17
2022-12-25T01:47:11.462Z,30.9
2022-12-25T01:49:09.065Z,37.4
2022-12-25T01:51:06.693Z,35
2022-12-25T01:53:04.325Z,34.9
2022-12-25T01:55:03.488Z,18.9
2022-12-25T01:57:08.921Z,20.8
2022-12-25T01:59:06.555Z,41.7
2022-12-25T02:01:04.196Z,31.4
2022-12-25T02:03:01.814Z,29.4
2022-12-25T02:04:59.398Z,40.2
2022-12-25T02:06:56.994Z,28.7
2022-12-25T02:14:59.646Z,33.9
2022-12-25T02:15:58.140Z,27.5
2022-12-25T02:17:55.713Z,17.7
2022-12-25T02:19:53.321Z,20.2
2022-12-25T02:21:50.916Z,18.2
2022-12-25T02:23:56.448Z,36.1
2022-12-25T02:25:54.005Z,32.6
2022-12-25T02:27:51.626Z,47.2
2022-12-25T02:29:49.238Z,28.2
2022-12-25T02:31:46.902Z,31.4
2022-12-25T02:33:44.415Z,38.9
2022-12-25T02:35:42.020Z,29.1
2022-12-25T02:37:47.554Z,29.5
2022-12-25T02:39:45.178Z,24.3
2022-12-25T02:41:42.776Z,18.7
2022-12-25T02:43:40.403Z,46.5
2022-12-25T02:45:38.030Z,31.8
2022-12-25T02:47:35.600Z,33.1
2022-12-25T02:49:33.213Z,20.7
2022-12-25T02:51:38.733Z,36.7
2022-12-25T02:59:29.136Z,35.7
2022-12-25T03:01:26.857Z,25
2022-12-25T03:03:24.428Z,36.2
2022-12-25T03:05:29.835Z,46.4
2022-12-25T03:07:27.441Z,30.9
2022-12-25T03:09:25.055Z,30.7
2022-12-25T03:10:27.834Z,30.5
2022-12-25T03:12:25.446Z,29.8
2022-12-25T03:14:23.057Z,32.9
2022-12-25T03:16:20.737Z,52.1
2022-12-25T03:18:26.152Z,24
2022-12-25T03:20:23.759Z,23.5
2022-12-25T03:28:14.574Z,23.7
2022-12-25T03:30:12.194Z,24.6
2022-12-25T03:32:17.707Z,28.2
2022-12-25T03:34:15.276Z,26.7
2022-12-25T03:36:12.870Z,18.6
2022-12-25T03:38:10.483Z,43.4
2022-12-25T03:40:08.088Z,37.1
2022-12-25T03:42:05.731Z,20.4
2022-12-25T03:46:08.679Z,25.6
2022-12-25T03:50:03.800Z,19.1
2022-12-25T03:52:01.464Z,36.6
2022-12-25T03:53:59.031Z,31.7
2022-12-25T03:55:56.629Z,39.2
2022-12-25T03:57:54.266Z,38.8
2022-12-25T03:59:59.763Z,29.3
2022-12-25T04:01:57.478Z,23.4
2022-12-25T04:03:54.985Z,37.1
2022-12-25T04:06:18.101Z,23
2022-12-25T04:08:15.710Z,38.8
2022-12-25T04:10:13.319Z,23.2
2022-12-25T04:12:18.856Z,24.9
2022-12-25T04:14:16.468Z,43.1
2022-12-25T04:16:14.150Z,25.2
2022-12-25T04:18:11.698Z,22.7
2022-12-25T04:20:09.303Z,25.7
2022-12-25T04:22:06.907Z,28.2
2022-12-25T04:24:04.523Z,18.2
2022-12-25T04:28:07.663Z,36.5
2022-12-25T04:30:05.262Z,37.1
2022-12-25T04:32:02.882Z,31.9
2022-12-25T04:34:00.448Z,31.1
2022-12-25T04:35:58.059Z,17.5
2022-12-25T04:37:55.659Z,16
2022-12-25T04:40:01.182Z,26.3
2022-12-25T04:41:58.791Z,17.4
2022-12-25T04:43:56.411Z,21.8
2022-12-25T04:45:53.988Z,27.1
2022-12-25T04:47:51.630Z,22.9
2022-12-25T04:49:49.202Z,16.7
2022-12-25T04:51:46.809Z,19.6
2022-12-25T04:55:49.929Z,13.6
2022-12-25T04:57:47.567Z,10.6
2022-12-25T04:58:50.321Z,25.2
2022-12-25T05:00:47.922Z,18
2022-12-25T05:02:45.776Z,21.3
2022-12-25T05:04:43.114Z,15.1
2022-12-25T05:06:48.658Z,16.1
2022-12-25T05:08:46.311Z,10.1
2022-12-25T05:10:43.902Z,10.9
2022-12-25T05:12:41.662Z,9.9
2022-12-25T05:14:39.103Z,26.4
2022-12-25T05:16:36.728Z,18.6
2022-12-25T05:18:34.365Z,18.2
2022-12-25T05:20:40.560Z,27.4
2022-12-25T05:22:37.456Z,14.7
2022-12-25T05:24:35.063Z,17.3
2022-12-25T05:28:30.266Z,30.7
2022-12-25T05:30:27.875Z,8
2022-12-25T05:34:31.028Z,22.3
2022-12-25T05:36:28.643Z,17.4
2022-12-25T05:38:26.225Z,10.7
2022-12-25T05:44:19.042Z,12.2
2022-12-25T05:46:16.725Z,25
2022-12-25T05:48:22.157Z,11
2022-12-25T05:50:19.733Z,20.9
2022-12-25T05:52:17.334Z,18.9
2022-12-25T05:53:20.120Z,24.8
2022-12-25T05:55:17.723Z,25.2
2022-12-25T06:01:18.538Z,12.4
2022-12-25T06:09:08.899Z,8.8
2022-12-25T06:11:06.500Z,22.9
2022-12-25T06:15:09.663Z,6.1
2022-12-25T06:17:07.267Z,11.5
2022-12-25T06:19:04.865Z,6.6
2022-12-25T06:21:02.481Z,13.3
2022-12-25T06:23:00.110Z,10.2
2022-12-25T06:24:57.732Z,16.4
2022-12-25T06:26:55.323Z,6.9
2022-12-25T06:29:00.778Z,35.7
2022-12-25T06:30:58.401Z,18.1
2022-12-25T06:32:55.969Z,20.4
2022-12-25T06:34:53.603Z,10.8
2022-12-25T06:36:51.208Z,10.9
2022-12-25T06:38:48.815Z,18.4
2022-12-25T06:40:46.420Z,15.1
2022-12-25T06:42:51.935Z,21.1
2022-12-25T06:44:49.533Z,14.7
2022-12-25T06:46:47.170Z,20.5
2022-12-25T06:47:49.923Z,23.4
2022-12-25T06:49:47.514Z,18.3
2022-12-25T06:51:45.153Z,8.5
2022-12-25T06:53:42.774Z,23.3
2022-12-25T06:55:48.269Z,21.5
2022-12-25T06:57:45.894Z,14.2
2022-12-25T06:59:43.479Z,20
2022-12-25T07:01:41.268Z,12
2022-12-25T07:03:38.719Z,13.8
2022-12-25T07:05:36.307Z,12.9
2022-12-25T07:07:33.903Z,32.7
2022-12-25T07:09:39.514Z,14.5
2022-12-25T07:11:37.038Z,12.9
2022-12-25T07:13:34.653Z,16.6
2022-12-25T07:15:32.213Z,18.4
2022-12-25T07:17:29.843Z,17.1
2022-12-25T07:19:27.406Z,11.8
2022-12-25T07:21:25.963Z,18.5
2022-12-25T07:23:31.469Z,31.4
2022-12-25T07:25:35.273Z,19.4
2022-12-25T07:27:26.693Z,21.5
2022-12-25T07:29:24.263Z,15.3
2022-12-25T07:33:19.498Z,17.1
2022-12-25T07:35:17.093Z,15
2022-12-25T07:37:24.112Z,17.2
2022-12-25T07:39:21.704Z,11.9
2022-12-25T07:41:19.319Z,32.6
2022-12-25T07:43:40.067Z,14.8
2022-12-25T07:45:37.694Z,10
2022-12-25T07:47:35.235Z,21.3
2022-12-25T07:49:40.729Z,17.5
2022-12-25T07:51:38.332Z,15
2022-12-25T07:53:35.924Z,28.1
2022-12-25T07:55:33.514Z,23.3
2022-12-25T07:57:31.148Z,12.3
2022-12-25T07:59:28.755Z,23.2
2022-12-25T08:01:26.484Z,16.2
2022-12-25T08:03:32.201Z,25.4
2022-12-25T08:05:29.461Z,14.3
2022-12-25T08:07:27.056Z,14
2022-12-25T08:09:24.677Z,11.7
2022-12-25T08:11:22.263Z,11.3
2022-12-25T08:13:19.865Z,13.3
2022-12-25T08:15:17.479Z,15.2
2022-12-25T08:17:23.484Z,23.7
2022-12-25T08:19:21.086Z,21.2
2022-12-25T08:21:18.808Z,16.7
2022-12-25T08:23:16.382Z,23.5
2022-12-25T08:25:13.962Z,15.6
2022-12-25T08:27:11.585Z,21.2
2022-12-25T08:29:09.164Z,14.3
2022-12-25T08:31:14.779Z,13.6
2022-12-25T08:33:12.437Z,15.8
2022-12-25T08:35:09.926Z,17.7
2022-12-25T08:36:12.689Z,22.5
2022-12-25T08:38:10.334Z,44.1
2022-12-25T08:40:07.938Z,22
2022-12-25T08:42:05.542Z,20.6
2022-12-25T08:44:11.016Z,16.6
2022-12-25T08:46:09.673Z,21.9
2022-12-25T08:48:07.143Z,21.2
2022-12-25T08:50:04.765Z,24.1
2022-12-25T08:55:57.567Z,22.9
2022-12-25T09:00:00.666Z,19.4
2022-12-25T09:03:55.882Z,16.2
2022-12-25T09:05:53.477Z,15
2022-12-25T09:07:51.084Z,15.3
2022-12-25T09:09:48.667Z,20.6
2022-12-25T09:11:54.202Z,18.8
2022-12-25T09:13:51.802Z,16.6
2022-12-25T09:15:49.428Z,16.3
2022-12-25T09:17:47.009Z,10.3
2022-12-25T09:19:44.617Z,13.3
2022-12-25T09:21:42.247Z,20.9
2022-12-25T09:23:39.839Z,22.6
2022-12-25T09:25:45.334Z,64.3
2022-12-25T09:27:42.936Z,31
2022-12-25T09:29:40.642Z,22.8
2022-12-25T09:34:38.543Z,22.3
2022-12-25T09:36:36.125Z,22.3
2022-12-25T09:38:41.649Z,38.3
2022-12-25T09:40:39.293Z,23.6
2022-12-25T09:42:36.882Z,18.9
2022-12-25T09:44:34.491Z,15.4
2022-12-25T09:48:29.680Z,15.6
2022-12-25T09:50:27.297Z,18.6
2022-12-25T09:52:32.807Z,20.9
2022-12-25T09:54:30.410Z,25.4
2022-12-25T09:56:28.043Z,17
2022-12-25T09:58:25.656Z,27.5
2022-12-25T10:00:23.243Z,22.6
2022-12-25T10:02:21.158Z,20.7
2022-12-25T10:04:18.470Z,16.5
2022-12-25T10:06:23.981Z,14.1
2022-12-25T10:08:21.614Z,15.1
2022-12-25T10:10:19.267Z,13.2
2022-12-25T10:12:16.839Z,21.3
2022-12-25T10:14:14.456Z,21
2022-12-25T10:24:10.457Z,8
2022-12-25T10:25:13.220Z,16.3
2022-12-25T10:27:10.838Z,13.2
2022-12-25T10:29:08.444Z,14
2022-12-25T10:31:06.094Z,17.6
2022-12-25T10:33:16.869Z,18
2022-12-25T10:35:09.258Z,25.7
2022-12-25T10:37:06.830Z,10.3
2022-12-25T10:39:04.448Z,14.6
2022-12-25T10:42:59.685Z,21.8
2022-12-25T10:44:57.272Z,13.1
2022-12-25T10:50:58.057Z,25.1
2022-12-25T10:52:55.718Z,17.5
2022-12-25T10:54:53.274Z,15.8
2022-12-25T10:56:50.885Z,11
2022-12-25T10:58:48.489Z,26.9
2022-12-25T11:00:53.973Z,13.2
2022-12-25T11:02:51.819Z,15.7
2022-12-25T11:04:49.251Z,26.7
2022-12-25T11:06:46.764Z,18.4
2022-12-25T11:08:44.379Z,13.8
2022-12-25T11:10:42.001Z,13
2022-12-25T11:12:39.592Z,12.1
2022-12-25T11:14:45.099Z,13.1
2022-12-25T11:16:42.851Z,20.9
2022-12-25T11:18:40.357Z,20.5
2022-12-25T11:21:07.250Z,12.9
2022-12-25T11:23:04.865Z,13.8
2022-12-25T11:25:02.455Z,17.8
2022-12-25T11:27:07.967Z,21.3
2022-12-25T11:29:05.594Z,25.3
2022-12-25T11:36:56.054Z,9.3
2022-12-25T11:38:53.645Z,12.8
2022-12-25T11:40:59.160Z,20.4
2022-12-25T11:42:57.588Z,12.8
2022-12-25T11:44:54.414Z,21.7
2022-12-25T11:46:52.111Z,34
2022-12-25T11:48:49.584Z,20.5
2022-12-25T11:50:47.192Z,36.1
2022-12-25T11:52:44.796Z,26.8
2022-12-25T11:54:50.353Z,20.9
2022-12-25T11:56:47.924Z,28.8
2022-12-25T11:58:45.557Z,14.3
2022-12-25T12:00:43.139Z,17.3
2022-12-25T12:02:40.992Z,25.1
2022-12-25T12:04:42.724Z,15.7
2022-12-25T12:06:35.964Z,15.4
2022-12-25T12:08:41.472Z,18.6
2022-12-25T12:10:39.081Z,19.3
2022-12-25T12:12:36.712Z,21.8
2022-12-25T12:13:39.452Z,14.7
2022-12-25T12:15:37.068Z,14.2
2022-12-25T12:17:34.674Z,27.3
2022-12-25T12:21:37.777Z,18
2022-12-25T12:23:35.404Z,21.2
2022-12-25T12:25:32.983Z,15.4
2022-12-25T12:27:30.587Z,12.7
2022-12-25T12:29:28.174Z,16
2022-12-25T12:31:25.801Z,14.7
2022-12-25T12:33:23.382Z,24.4
2022-12-25T12:35:28.904Z,28.9
2022-12-25T12:37:26.518Z,20.3
2022-12-25T12:39:24.131Z,27
2022-12-25T12:45:16.958Z,16.8
2022-12-25T12:47:14.540Z,40.9
2022-12-25T12:49:20.058Z,25.6
2022-12-25T12:51:17.660Z,19.5
2022-12-25T12:53:15.273Z,23.4
2022-12-25T12:55:12.889Z,28.2
2022-12-25T12:57:10.469Z,30.1
2022-12-25T12:59:08.079Z,22.7
2022-12-25T13:01:05.692Z,21.2
2022-12-25T13:03:11.258Z,18
2022-12-25T13:05:08.782Z,13.2
2022-12-25T13:07:06.402Z,24
2022-12-25T13:08:09.141Z,14.9
2022-12-25T13:12:04.367Z,23.4
2022-12-25T13:18:06.569Z,26.9
2022-12-25T13:20:04.218Z,22.5
2022-12-25T13:22:01.832Z,29.1
2022-12-25T13:23:59.469Z,21
2022-12-25T13:25:57.080Z,28.4
2022-12-25T13:27:54.705Z,25.1
2022-12-25T13:30:00.246Z,23
2022-12-25T13:31:57.838Z,21
2022-12-25T13:33:55.394Z,17.7
2022-12-25T13:35:53.008Z,18.3
2022-12-25T13:37:50.626Z,18
2022-12-25T13:39:48.219Z,24.4
2022-12-25T13:41:45.859Z,18.3
2022-12-25T13:45:48.990Z,28.3
2022-12-25T13:47:51.459Z,26.2
2022-12-25T13:49:44.153Z,24.3
2022-12-25T13:51:41.769Z,23
2022-12-25T13:53:39.350Z,22.9
2022-12-25T13:55:36.998Z,29.1
2022-12-25T13:57:42.493Z,22.3
2022-12-25T13:59:40.141Z,30.3
2022-12-25T14:01:37.856Z,25
2022-12-25T14:02:40.657Z,26.1
2022-12-25T14:04:38.099Z,27.3
2022-12-25T14:06:35.695Z,24.6
2022-12-25T14:08:33.325Z,24.9
2022-12-25T14:10:38.871Z,30.1
2022-12-25T14:12:36.462Z,25.8
2022-12-25T14:14:34.057Z,21.8
2022-12-25T14:16:31.730Z,26.3
2022-12-25T14:18:29.250Z,22.4
2022-12-25T14:20:26.879Z,24
2022-12-25T14:22:24.508Z,31.3
2022-12-25T14:24:29.995Z,19.1
2022-12-25T14:26:27.590Z,33.1
2022-12-25T14:28:25.158Z,34.3
2022-12-25T14:30:22.778Z,38.2
2022-12-25T14:32:20.386Z,38.3
2022-12-25T14:34:17.992Z,34.6
2022-12-25T14:36:15.595Z,32.9
2022-12-25T14:38:21.130Z,29.1
2022-12-25T14:40:18.775Z,30.8
2022-12-25T14:44:13.963Z,32.8
2022-12-25T14:46:11.604Z,33.7
2022-12-25T14:48:09.186Z,40.3
2022-12-25T14:52:12.325Z,34.2
2022-12-25T14:54:09.939Z,53.6
2022-12-25T14:58:30.510Z,37.7
2022-12-25T15:00:28.107Z,64.7
2022-12-25T15:02:26.053Z,34.6
2022-12-25T15:04:31.231Z,32.8
2022-12-25T15:12:21.686Z,28.3
2022-12-25T15:14:19.274Z,28.5
2022-12-25T15:16:17.101Z,33.4
2022-12-25T15:18:22.436Z,43.1
2022-12-25T15:20:20.055Z,35.6
2022-12-25T15:22:17.666Z,37.4
2022-12-25T15:26:12.873Z,31.4
2022-12-25T15:28:13.064Z,33.6
2022-12-25T15:30:10.172Z,44.5
2022-12-25T15:34:11.201Z,34.2
2022-12-25T15:36:08.812Z,38
2022-12-25T15:38:06.430Z,29.2
2022-12-25T15:42:01.629Z,40.3
2022-12-25T15:43:59.220Z,117
2022-12-25T15:48:02.375Z,94.4
2022-12-25T15:49:59.975Z,35.7
2022-12-25T15:51:02.704Z,42.5
2022-12-25T15:53:00.342Z,33.9
2022-12-25T15:54:57.928Z,37.1
2022-12-25T15:56:55.558Z,35.4
2022-12-25T15:59:01.080Z,29.6
2022-12-25T16:06:51.499Z,34.7
2022-12-25T16:08:49.079Z,35
2022-12-25T16:10:46.682Z,31.4
2022-12-25T16:12:52.149Z,39.6
2022-12-25T16:16:47.377Z,27.9
2022-12-25T16:18:47.767Z,35.4
2022-12-25T16:20:42.588Z,28.6
2022-12-25T16:22:40.305Z,33
2022-12-25T16:24:37.816Z,32.5
2022-12-25T16:26:43.326Z,33
2022-12-25T16:28:40.944Z,37.8
2022-12-25T16:30:38.586Z,37.5
2022-12-25T16:32:36.167Z,30.6
2022-12-25T16:34:33.897Z,32
2022-12-25T16:38:29.016Z,32
2022-12-25T16:40:34.510Z,35.2
2022-12-25T16:42:32.100Z,79.8
2022-12-25T16:44:29.699Z,39.1
2022-12-25T16:45:32.458Z,32
2022-12-25T16:53:30.779Z,33
2022-12-25T16:55:30.364Z,29.6
2022-12-25T16:57:26.004Z,37.1
2022-12-25T16:59:23.609Z,45.8
2022-12-25T17:01:21.326Z,49.9
2022-12-25T17:03:19.022Z,45.9
2022-12-25T17:05:16.454Z,44.2
2022-12-25T17:15:12.384Z,42.1
2022-12-25T17:17:09.983Z,35.1
2022-12-25T17:19:07.567Z,40.6
2022-12-25T17:21:13.057Z,53.2
2022-12-25T17:23:10.675Z,46.5
2022-12-25T17:25:08.299Z,48.9
2022-12-25T17:27:05.887Z,40.7
2022-12-25T17:31:01.133Z,61.1
2022-12-25T17:32:58.704Z,63.5
2022-12-25T17:35:04.158Z,50.9
2022-12-25T17:37:01.764Z,56
2022-12-25T17:38:59.364Z,49.2
2022-12-25T17:40:02.133Z,48.1
2022-12-25T17:41:59.738Z,42.7
2022-12-25T17:43:57.344Z,54.5
2022-12-25T17:48:00.464Z,57
2022-12-25T17:49:58.098Z,85.2
2022-12-25T17:51:55.696Z,67.8
2022-12-25T17:53:53.355Z,75.8
2022-12-25T17:55:50.942Z,83.6
2022-12-25T17:57:48.529Z,74.8
2022-12-25T17:59:46.133Z,63.6
2022-12-25T18:01:51.738Z,66.7
2022-12-25T18:03:49.327Z,72.9
2022-12-25T18:05:46.854Z,94.5
2022-12-25T18:07:44.463Z,74.4
2022-12-25T18:09:42.069Z,76
2022-12-25T18:11:39.690Z,59.7
2022-12-25T18:13:37.323Z,57.6
2022-12-25T18:15:42.803Z,52.6
2022-12-25T18:17:40.373Z,53.6
2022-12-25T18:19:38.002Z,61.9
2022-12-25T18:21:35.617Z,49.5
2022-12-25T18:23:33.232Z,64
2022-12-25T18:25:30.844Z,69.6
2022-12-25T18:27:28.429Z,68.3
2022-12-25T18:29:33.938Z,96.2
2022-12-25T18:31:31.612Z,87.3
2022-12-25T18:33:29.153Z,85
2022-12-25T18:35:56.061Z,86.3
2022-12-25T18:39:51.284Z,79
2022-12-25T18:41:56.800Z,77
2022-12-25T18:43:55.678Z,81.5
2022-12-25T18:45:52.108Z,86.7
2022-12-25T18:47:49.614Z,77.2
2022-12-25T18:49:47.260Z,88.4
2022-12-25T18:55:47.920Z,74.8
2022-12-25T18:57:46.139Z,65.8
2022-12-25T18:59:42.098Z,63.5
2022-12-25T19:01:39.857Z,70.3
2022-12-25T19:03:37.332Z,60.9
2022-12-25T19:05:34.944Z,71.1
2022-12-25T19:07:32.539Z,87.4
2022-12-25T19:09:38.022Z,54.6
2022-12-25T19:11:39.074Z,57.8
2022-12-25T19:13:33.255Z,54.5
2022-12-25T19:15:30.843Z,54.3
2022-12-25T19:17:31.584Z,39
2022-12-25T19:19:26.075Z,52.7
2022-12-25T19:21:23.677Z,48.5
2022-12-25T19:23:29.184Z,49.9
2022-12-25T19:25:26.808Z,44.7
2022-12-25T19:27:24.365Z,33
2022-12-25T19:28:27.133Z,27
2022-12-25T19:30:24.770Z,30.9
2022-12-25T19:32:22.379Z,26.3
2022-12-25T19:34:19.984Z,27.9
2022-12-25T19:36:25.476Z,40.6
2022-12-25T19:42:18.317Z,35.6
2022-12-25T19:44:15.892Z,31.6
2022-12-25T19:48:11.109Z,29.6
2022-12-25T19:50:16.605Z,36.5
2022-12-25T19:56:09.405Z,42.3
2022-12-25T19:58:07.049Z,41.2
2022-12-25T20:02:02.419Z,51.7
2022-12-25T20:04:07.733Z,49.4
2022-12-25T20:06:05.341Z,50.1
2022-12-25T20:08:02.969Z,34.4
2022-12-25T20:10:00.556Z,51.5
2022-12-25T20:11:58.121Z,51.8
2022-12-25T20:13:55.743Z,32.7
2022-12-25T20:15:53.377Z,43.1
2022-12-25T20:17:58.875Z,35
2022-12-25T20:19:56.485Z,31.9
2022-12-25T20:21:54.081Z,28.7
2022-12-25T20:22:56.829Z,31.2
2022-12-25T20:24:54.427Z,31.5
2022-12-25T20:26:57.083Z,21.4
2022-12-25T20:28:49.698Z,25.8
2022-12-25T20:30:55.178Z,27
2022-12-25T20:32:52.774Z,20.9
2022-12-25T20:36:47.996Z,35
2022-12-25T20:38:45.600Z,33.7
2022-12-25T20:41:24.405Z,39.8
2022-12-25T20:42:40.800Z,36.7
2022-12-25T20:44:46.325Z,32.9
2022-12-25T20:46:43.914Z,29.6
2022-12-25T20:48:41.530Z,31.1
2022-12-25T20:50:39.128Z,32.4
2022-12-25T20:52:36.742Z,34.7
2022-12-25T20:54:34.341Z,28.5
2022-12-25T20:58:37.463Z,34.7
2022-12-25T21:00:35.087Z,27.9
2022-12-25T21:02:35.168Z,31.9
2022-12-25T21:08:26.514Z,46.2
2022-12-25T21:12:29.608Z,35.5
2022-12-25T21:14:27.214Z,28.8
2022-12-25T21:16:24.848Z,27
2022-12-25T21:17:27.575Z,23.6
2022-12-25T21:19:25.185Z,20.4
2022-12-25T21:21:22.836Z,27.9
2022-12-25T21:23:20.401Z,24.9
2022-12-25T21:25:25.927Z,27.2
2022-12-25T21:27:23.500Z,26.3
2022-12-25T21:29:21.090Z,19.5
2022-12-25T21:31:18.826Z,22.6
2022-12-25T21:33:17.270Z,24
2022-12-25T21:35:13.952Z,20.4
2022-12-25T21:37:11.511Z,31.6
2022-12-25T21:39:17.020Z,25.6
2022-12-25T21:47:07.446Z,24.5
2022-12-25T21:53:08.185Z,19.5
2022-12-25T21:55:05.741Z,23.5
2022-12-25T21:57:03.415Z,17.3
2022-12-25T21:59:00.949Z,19.8
2022-12-25T22:00:58.611Z,22.4
2022-12-25T22:02:56.342Z,19.4
2022-12-25T22:04:53.805Z,21.6
2022-12-25T22:06:59.317Z,21.7
2022-12-25T22:08:56.927Z,21
2022-12-25T22:10:54.533Z,18.4
2022-12-25T22:13:17.533Z,29.5
2022-12-25T22:15:15.084Z,17.2
2022-12-25T22:17:12.664Z,19
2022-12-25T22:19:18.181Z,24.9
2022-12-25T22:21:15.813Z,19.6
2022-12-25T22:23:13.407Z,17.5
2022-12-25T22:27:08.599Z,18.6
2022-12-25T22:29:06.222Z,29.2
2022-12-25T22:31:03.888Z,23.8
2022-12-25T22:33:09.326Z,26.1
2022-12-25T22:35:06.944Z,29.4
2022-12-25T22:39:02.193Z,20.3
2022-12-25T22:40:59.780Z,24.8
2022-12-25T22:42:57.408Z,21.4
2022-12-25T22:47:00.513Z,22.6
2022-12-25T22:48:58.156Z,25.7
2022-12-25T22:50:55.742Z,29.1
2022-12-25T22:52:53.341Z,20
2022-12-25T22:56:48.553Z,23.2
2022-12-25T22:58:46.162Z,25.2
2022-12-25T23:00:51.661Z,24.7
2022-12-25T23:02:49.364Z,24.1
2022-12-25T23:04:46.861Z,16.6
2022-12-25T23:05:49.618Z,20.8
2022-12-25T23:07:47.233Z,20.3
2022-12-25T23:15:45.593Z,18.5
2022-12-25T23:17:43.214Z,20.2
2022-12-25T23:19:40.754Z,27.1
2022-12-25T23:23:35.956Z,18.3
2022-12-25T23:25:33.575Z,26.1
2022-12-25T23:27:39.093Z,20.3
2022-12-25T23:29:36.669Z,19.8
2022-12-25T23:35:29.491Z,19.9
2022-12-25T23:37:27.106Z,23.2
2022-12-25T23:41:30.213Z,29.4
2022-12-25T23:43:27.850Z,25.8
2022-12-25T23:45:25.421Z,26.6
2022-12-25T23:47:22.991Z,20.2
2022-12-25T23:49:20.607Z,19.7
2022-12-25T23:51:18.209Z,21.9
2022-12-25T23:53:15.838Z,25.7
2022-12-25T23:57:18.963Z,16.4
2022-12-25T23:59:16.561Z,22.4
